Time;durP1;ratioP1;P1;durP2;ratioP2;P2;SDS_P1;SDS_P2;PMS_P1;PMS_P2;Temp;Humidity;BMP_temperature;BMP_pressure;BME280_temperature;BME280_humidity;BME280_pressure;Samples;Min_cycle;Max_cycle;Signal;HPM_P1;HPM_P2
2022/03/29 00:00:40;;;;;;;28.30;16.33;;;16.90;34.40;;;;;;5070965;28;20382;-54
2022/03/29 00:03:08;;;;;;;28.38;16.88;;;16.90;34.50;;;;;;5071477;28;20031;-65
2022/03/29 00:05:35;;;;;;;23.88;15.93;;;16.90;34.60;;;;;;5063472;28;20021;-55
2022/03/29 00:08:01;;;;;;;25.75;15.27;;;16.90;34.70;;;;;;5052158;28;20040;-62
2022/03/29 00:10:27;;;;;;;26.85;16.20;;;16.80;34.70;;;;;;5047814;28;20029;-54
2022/03/29 00:12:53;;;;;;;23.42;15.75;;;16.80;34.70;;;;;;5053190;28;20026;-55
2022/03/29 00:15:21;;;;;;;25.67;14.88;;;16.80;34.80;;;;;;5052824;28;20024;-55
2022/03/29 00:17:47;;;;;;;25.67;15.88;;;16.80;34.80;;;;;;5071302;28;20441;-56
2022/03/29 00:20:17;;;;;;;30.33;16.02;;;16.70;34.80;;;;;;5052493;28;20028;-58
2022/03/29 00:22:43;;;;;;;29.65;15.05;;;16.70;34.90;;;;;;5052168;28;20031;-56
2022/03/29 00:25:10;;;;;;;25.58;15.90;;;16.70;34.90;;;;;;5070236;28;20031;-52
2022/03/29 00:27:36;;;;;;;23.60;15.90;;;16.70;35.00;;;;;;5054438;28;20031;-55
2022/03/29 00:30:04;;;;;;;24.25;15.75;;;16.60;35.00;;;;;;5061489;28;20024;-58
2022/03/29 00:32:31;;;;;;;24.98;15.07;;;16.60;35.00;;;;;;5051251;28;20021;-56
2022/03/29 00:34:57;;;;;;;24.95;15.52;;;16.60;35.10;;;;;;5065059;28;20162;-54
2022/03/29 00:37:32;;;;;;;24.35;15.57;;;16.60;35.10;;;;;;5064735;28;20119;-55
2022/03/29 00:39:58;;;;;;;24.45;15.85;;;16.60;35.10;;;;;;5053025;28;20045;-56
2022/03/29 00:42:23;;;;;;;26.40;15.85;;;16.60;35.20;;;;;;5052540;28;20043;-57
2022/03/29 00:44:49;;;;;;;31.52;16.27;;;16.50;35.90;;;;;;5065293;28;20024;-54
2022/03/29 00:47:15;;;;;;;24.42;16.05;;;16.50;35.30;;;;;;5070809;28;20119;-55
2022/03/29 00:49:41;;;;;;;23.73;15.02;;;16.50;35.40;;;;;;5071232;28;20495;-54
2022/03/29 00:52:08;;;;;;;30.42;16.45;;;16.50;35.40;;;;;;5070613;28;20028;-55
2022/03/29 00:54:37;;;;;;;23.60;16.30;;;16.50;35.40;;;;;;5070428;28;20052;-55
2022/03/29 00:57:05;;;;;;;27.77;16.08;;;16.50;35.40;;;;;;5069136;28;20075;-58
2022/03/29 00:59:32;;;;;;;28.08;16.02;;;16.40;36.10;;;;;;5070300;28;20056;-56
2022/03/29 01:01:58;;;;;;;33.92;17.33;;;16.40;35.50;;;;;;5053024;28;20051;-57
2022/03/29 01:04:27;;;;;;;31.45;16.58;;;16.40;35.50;;;;;;5051861;28;20070;-58
2022/03/29 01:06:58;;;;;;;28.85;16.35;;;16.40;35.60;;;;;;5052943;28;20028;-56
2022/03/29 01:09:29;;;;;;;26.73;15.52;;;16.40;35.70;;;;;;5069029;28;20102;-53
2022/03/29 01:11:58;;;;;;;30.05;15.52;;;16.30;35.70;;;;;;5071062;28;20037;-56
2022/03/29 01:14:25;;;;;;;26.05;15.70;;;16.30;35.70;;;;;;5069680;28;20020;-55
2022/03/29 01:19:38;;;;;;;26.00;15.32;;;16.30;35.80;;;;;;5070808;28;20035;-53
2022/03/29 01:22:09;;;;;;;25.10;15.82;;;16.30;36.10;;;;;;5052703;28;20066;-60
2022/03/29 01:24:37;;;;;;;21.90;14.90;;;16.30;36.20;;;;;;5052575;28;20111;-59
2022/03/29 01:27:05;;;;;;;24.83;16.30;;;16.20;36.30;;;;;;5070948;28;20119;-54
2022/03/29 01:29:32;;;;;;;23.52;15.45;;;16.20;36.50;;;;;;5069754;28;20033;-55
2022/03/29 01:32:01;;;;;;;30.38;15.77;;;16.10;36.50;;;;;;5052598;28;20043;-57
2022/03/29 01:34:29;;;;;;;25.70;15.18;;;16.10;36.50;;;;;;5051412;28;20031;-57
2022/03/29 01:36:56;;;;;;;24.23;15.82;;;16.10;36.70;;;;;;5053075;28;20048;-52
2022/03/29 01:39:22;;;;;;;26.88;16.45;;;16.10;36.80;;;;;;5052147;28;20141;-55
2022/03/29 01:41:48;;;;;;;23.65;15.13;;;16.00;37.10;;;;;;5052865;28;20384;-55
2022/03/29 01:44:14;;;;;;;25.52;15.63;;;15.90;37.40;;;;;;5052841;28;20033;-61
2022/03/29 01:46:40;;;;;;;28.45;15.15;;;15.80;37.80;;;;;;5071123;28;20381;-58
2022/03/29 01:49:07;;;;;;;21.83;14.85;;;15.70;38.20;;;;;;5071236;28;20020;-55
2022/03/29 01:51:33;;;;;;;23.10;14.93;;;15.50;38.70;;;;;;5053137;28;20119;-54
2022/03/29 01:54:02;;;;;;;27.40;15.27;;;15.40;38.90;;;;;;5071008;28;20027;-56
2022/03/29 01:56:34;;;;;;;22.75;14.23;;;15.30;39.50;;;;;;5052526;28;20067;-57
2022/03/29 01:59:05;;;;;;;25.67;15.63;;;15.10;39.60;;;;;;5036304;28;20044;-57
2022/03/29 02:01:38;;;;;;;21.75;15.00;;;15.10;39.80;;;;;;5052561;28;20037;-54
2022/03/29 02:04:04;;;;;;;28.58;15.13;;;15.00;40.10;;;;;;5071388;28;20021;-57
2022/03/29 02:06:30;;;;;;;20.83;14.80;;;14.90;40.10;;;;;;5051935;28;20575;-56
2022/03/29 02:08:57;;;;;;;27.25;16.20;;;14.90;40.30;;;;;;5070832;28;20020;-58
2022/03/29 02:11:23;;;;;;;24.25;15.20;;;14.80;40.30;;;;;;5052192;28;20032;-56
2022/03/29 02:13:49;;;;;;;24.58;15.48;;;14.70;40.40;;;;;;5070785;28;20024;-57
2022/03/29 02:16:15;;;;;;;27.38;14.68;;;14.70;40.60;;;;;;5069902;28;20029;-57
2022/03/29 02:18:41;;;;;;;22.48;15.07;;;14.70;40.70;;;;;;5052993;28;20020;-55
2022/03/29 02:21:07;;;;;;;27.88;15.98;;;14.60;40.90;;;;;;5073565;28;20461;-63
2022/03/29 02:23:33;;;;;;;25.48;14.88;;;14.50;40.90;;;;;;5056393;28;20495;-56
2022/03/29 02:25:58;;;;;;;27.70;15.18;;;14.50;41.00;;;;;;5056382;28;20111;-57
2022/03/29 02:28:24;;;;;;;21.55;14.50;;;14.50;41.10;;;;;;5073650;28;20029;-56
2022/03/29 02:30:50;;;;;;;25.63;14.55;;;14.40;41.10;;;;;;5074009;28;20430;-57
2022/03/29 02:33:15;;;;;;;25.40;15.43;;;14.40;41.20;;;;;;5073639;28;20029;-55
2022/03/29 02:35:42;;;;;;;25.00;14.27;;;14.40;41.30;;;;;;5074049;28;20028;-55
2022/03/29 02:38:11;;;;;;;27.40;15.20;;;14.40;41.30;;;;;;5073771;28;20116;-60
2022/03/29 02:40:37;;;;;;;22.88;14.50;;;14.40;41.40;;;;;;5073711;28;20032;-55
2022/03/29 02:43:03;;;;;;;21.33;14.48;;;14.40;41.50;;;;;;5055900;28;20040;-56
2022/03/29 02:45:29;;;;;;;28.42;15.57;;;14.30;41.50;;;;;;5072899;28;20070;-54
2022/03/29 02:47:56;;;;;;;21.35;14.30;;;14.30;41.60;;;;;;5073798;28;20060;-54
2022/03/29 02:50:24;;;;;;;23.73;14.80;;;14.30;41.80;;;;;;5072984;28;20479;-57
2022/03/29 02:52:55;;;;;;;23.05;13.90;;;14.30;41.80;;;;;;5073966;28;20054;-55
2022/03/29 02:55:23;;;;;;;21.85;14.43;;;14.20;41.90;;;;;;5055003;28;20035;-56
2022/03/29 02:57:49;;;;;;;29.27;14.40;;;14.20;42.10;;;;;;5073164;28;20052;-52
2022/03/29 03:00:17;;;;;;;26.27;15.25;;;14.10;42.10;;;;;;5072852;28;20021;-57
2022/03/29 03:02:54;;;;;;;29.00;15.90;;;14.10;42.20;;;;;;5073571;28;20024;-56
2022/03/29 03:05:20;;;;;;;26.67;15.45;;;14.10;42.40;;;;;;5055308;28;20024;-56
2022/03/29 03:07:47;;;;;;;26.63;15.23;;;14.00;42.30;;;;;;5073470;28;20056;-54
2022/03/29 03:10:13;;;;;;;23.80;14.82;;;14.00;42.60;;;;;;5055140;28;20031;-55
2022/03/29 03:12:41;;;;;;;25.73;15.30;;;14.00;42.70;;;;;;5055144;28;20051;-54
2022/03/29 03:15:10;;;;;;;22.48;15.13;;;13.90;42.80;;;;;;5055371;28;20056;-62
2022/03/29 03:17:36;;;;;;;24.73;14.95;;;13.90;42.90;;;;;;5073010;28;20428;-54
2022/03/29 03:20:02;;;;;;;27.85;15.10;;;13.80;42.90;;;;;;5073208;28;20024;-56
2022/03/29 03:22:28;;;;;;;24.15;13.98;;;13.80;43.10;;;;;;5038196;28;20082;-54
2022/03/29 03:24:55;;;;;;;21.85;14.75;;;13.80;43.10;;;;;;5038468;28;20033;-52
2022/03/29 03:27:21;;;;;;;23.40;14.73;;;13.80;43.20;;;;;;5072712;28;20101;-55
2022/03/29 03:29:47;;;;;;;23.88;15.00;;;13.70;43.30;;;;;;5072771;28;20024;-54
2022/03/29 03:32:13;;;;;;;23.40;15.02;;;13.70;43.40;;;;;;5072204;28;20028;-55
2022/03/29 03:34:39;;;;;;;23.42;14.35;;;13.70;43.50;;;;;;5055103;28;20028;-56
2022/03/29 03:37:05;;;;;;;25.77;14.73;;;13.70;43.60;;;;;;5055034;28;20115;-56
2022/03/29 03:39:34;;;;;;;22.15;14.93;;;13.70;43.60;;;;;;5054407;28;20081;-57
2022/03/29 03:42:00;;;;;;;26.50;14.80;;;13.70;43.60;;;;;;5073008;28;20475;-57
2022/03/29 03:44:27;;;;;;;22.48;15.18;;;13.70;43.60;;;;;;5072430;28;20021;-58
2022/03/29 03:46:52;;;;;;;28.23;14.68;;;13.70;43.60;;;;;;5073179;28;20025;-55
2022/03/29 03:49:18;;;;;;;27.20;15.02;;;13.70;43.70;;;;;;5072591;28;20024;-56
2022/03/29 03:51:44;;;;;;;27.52;14.13;;;13.70;43.70;;;;;;5073397;28;20017;-56
2022/03/29 03:54:09;;;;;;;27.92;15.40;;;13.70;43.70;;;;;;5072066;28;20027;-60
2022/03/29 03:56:35;;;;;;;23.75;14.25;;;13.70;43.80;;;;;;5055116;28;20119;-56
2022/03/29 03:59:01;;;;;;;24.35;14.48;;;13.60;43.80;;;;;;5072795;28;20049;-56
2022/03/29 04:01:27;;;;;;;30.27;14.50;;;13.60;43.90;;;;;;5072194;28;20102;-56
2022/03/29 04:03:52;;;;;;;28.00;16.02;;;13.70;43.90;;;;;;5072874;28;20059;-57
2022/03/29 04:06:18;;;;;;;24.08;14.07;;;13.70;43.90;;;;;;5054598;28;20072;-54
2022/03/29 04:08:44;;;;;;;25.30;15.35;;;13.70;43.90;;;;;;5055143;28;20086;-53
2022/03/29 04:11:10;;;;;;;21.65;14.55;;;13.70;43.90;;;;;;5073034;28;20444;-65
2022/03/29 04:13:36;;;;;;;26.67;15.05;;;13.70;43.80;;;;;;5073456;28;20032;-57
2022/03/29 04:16:03;;;;;;;26.60;14.90;;;13.80;43.80;;;;;;5055349;28;20104;-55
2022/03/29 04:18:29;;;;;;;25.10;15.35;;;13.80;43.70;;;;;;5072172;28;20078;-55
2022/03/29 04:20:54;;;;;;;26.25;15.27;;;13.80;43.80;;;;;;5055047;28;20465;-55
2022/03/29 04:23:21;;;;;;;34.70;15.18;;;13.80;43.90;;;;;;5054494;28;20028;-59
2022/03/29 04:25:46;;;;;;;28.88;15.50;;;13.70;44.00;;;;;;5054810;28;20124;-57
2022/03/29 04:28:12;;;;;;;27.77;15.95;;;13.70;44.00;;;;;;5072084;28;20078;-59
2022/03/29 04:30:38;;;;;;;25.13;15.45;;;13.70;44.10;;;;;;5072151;28;20036;-53
2022/03/29 04:33:04;;;;;;;27.13;16.25;;;13.60;44.20;;;;;;5072234;28;20028;-57
2022/03/29 04:35:30;;;;;;;31.63;16.25;;;13.60;44.20;;;;;;5071870;28;20502;-57
2022/03/29 04:37:56;;;;;;;27.02;16.20;;;13.60;44.40;;;;;;5071748;28;20043;-55
2022/03/29 04:40:21;;;;;;;29.73;15.27;;;13.50;44.50;;;;;;5053710;28;20326;-60
2022/03/29 04:42:49;;;;;;;30.48;15.75;;;13.50;44.50;;;;;;5071752;28;20078;-56
2022/03/29 04:45:16;;;;;;;29.48;15.65;;;13.50;44.50;;;;;;5053839;28;20119;-54
2022/03/29 04:47:43;;;;;;;28.63;16.20;;;13.60;44.50;;;;;;5072060;28;20047;-57
2022/03/29 04:50:10;;;;;;;26.48;16.60;;;13.50;44.60;;;;;;5054134;28;20032;-55
2022/03/29 04:52:37;;;;;;;30.58;17.08;;;13.50;44.70;;;;;;5053652;28;20086;-56
2022/03/29 04:55:04;;;;;;;32.00;16.05;;;13.50;44.70;;;;;;5071912;28;20032;-59
2022/03/29 04:57:30;;;;;;;29.75;15.93;;;13.40;44.60;;;;;;5071181;28;20111;-56
2022/03/29 04:59:56;;;;;;;30.45;15.15;;;13.50;44.70;;;;;;5071810;28;20055;-56
2022/03/29 05:02:23;;;;;;;27.63;15.57;;;13.50;44.70;;;;;;5071200;28;20035;-58
2022/03/29 05:04:49;;;;;;;30.50;15.93;;;13.50;44.70;;;;;;5071996;28;20032;-57
2022/03/29 05:07:15;;;;;;;31.73;15.98;;;13.50;44.70;;;;;;5071026;28;20073;-61
2022/03/29 05:09:41;;;;;;;28.00;16.02;;;13.50;44.70;;;;;;5071907;28;20024;-56
2022/03/29 05:12:07;;;;;;;30.33;16.67;;;13.60;44.70;;;;;;5072111;28;20024;-55
2022/03/29 05:14:34;;;;;;;33.22;16.08;;;13.60;44.80;;;;;;5070934;28;20021;-54
2022/03/29 05:17:00;;;;;;;31.70;16.40;;;13.60;44.70;;;;;;5071886;28;20036;-56
2022/03/29 05:19:26;;;;;;;38.53;17.27;;;13.70;44.60;;;;;;5053066;28;20051;-56
2022/03/29 05:21:52;;;;;;;32.35;17.05;;;13.80;44.50;;;;;;5071787;28;20112;-58
2022/03/29 05:24:19;;;;;;;29.58;16.73;;;13.80;44.30;;;;;;5052886;28;20035;-58
2022/03/29 05:26:45;;;;;;;35.55;17.83;;;13.90;44.10;;;;;;5071899;28;20028;-59
2022/03/29 05:29:11;;;;;;;38.08;17.77;;;14.10;44.00;;;;;;5071273;28;20104;-54
2022/03/29 05:31:38;;;;;;;34.92;18.30;;;14.10;43.80;;;;;;5070873;28;20036;-57
2022/03/29 05:34:22;;;;;;;38.72;17.85;;;14.30;43.70;;;;;;5072113;28;20032;-57
2022/03/29 05:36:49;;;;;;;31.02;17.30;;;14.30;43.50;;;;;;5053940;28;20051;-55
2022/03/29 05:39:15;;;;;;;38.80;18.48;;;14.40;43.30;;;;;;5071458;28;20102;-55
2022/03/29 05:41:42;;;;;;;35.45;17.65;;;14.50;43.10;;;;;;5053021;28;20020;-56
2022/03/29 05:44:07;;;;;;;43.20;19.20;;;14.60;43.00;;;;;;5071746;28;20078;-58
2022/03/29 05:49:20;;;;;;;41.35;17.98;;;14.70;42.80;;;;;;5070380;28;20035;-62
2022/03/29 05:51:46;;;;;;;35.75;18.83;;;14.80;42.70;;;;;;5051691;28;20036;-57
2022/03/29 05:54:12;;;;;;;42.08;19.67;;;14.90;42.60;;;;;;5069735;28;20028;-57
2022/03/29 05:56:38;;;;;;;37.28;18.67;;;15.00;42.30;;;;;;5054892;28;20040;-56
2022/03/29 05:59:04;;;;;;;34.30;18.85;;;15.20;42.10;;;;;;5054956;28;20054;-60
2022/03/29 06:01:29;;;;;;;42.75;19.15;;;15.30;41.90;;;;;;5055447;28;20055;-56
2022/03/29 06:03:56;;;;;;;31.02;17.02;;;15.50;41.60;;;;;;5056150;28;20092;-53
2022/03/29 06:06:22;;;;;;;30.63;17.63;;;15.60;41.10;;;;;;5055919;28;20021;-53
2022/03/29 06:08:48;;;;;;;35.40;18.60;;;15.70;40.80;;;;;;5073974;28;20031;-53
2022/03/29 06:11:14;;;;;;;38.92;20.60;;;15.90;40.50;;;;;;5056548;28;20478;-52
2022/03/29 06:13:40;;;;;;;39.70;19.77;;;16.10;39.90;;;;;;5055836;28;20158;-58
2022/03/29 06:16:06;;;;;;;38.95;19.05;;;16.20;39.60;;;;;;5074706;28;20103;-56
2022/03/29 06:18:32;;;;;;;39.28;19.45;;;16.30;39.50;;;;;;5074020;28;20113;-57
2022/03/29 06:20:57;;;;;;;36.20;19.23;;;16.50;39.20;;;;;;5074881;28;20028;-55
2022/03/29 06:23:23;;;;;;;44.30;21.20;;;16.70;38.70;;;;;;5074322;28;20428;-54
2022/03/29 06:25:50;;;;;;;47.88;22.08;;;16.90;38.60;;;;;;5056220;28;20484;-60
2022/03/29 06:28:17;;;;;;;46.90;19.95;;;17.00;38.30;;;;;;5056463;28;20020;-55
2022/03/29 06:30:44;;;;;;;39.00;19.45;;;17.20;38.30;;;;;;5055891;28;20031;-58
2022/03/29 06:33:10;;;;;;;40.38;19.65;;;17.30;38.00;;;;;;5056652;28;20025;-57
2022/03/29 06:35:40;;;;;;;34.33;19.30;;;17.40;37.80;;;;;;5073759;28;20021;-57
2022/03/29 06:38:07;;;;;;;29.30;18.75;;;17.50;37.60;;;;;;5055993;28;20489;-55
2022/03/29 06:40:53;;;;;;;41.65;19.95;;;17.70;37.40;;;;;;5073656;28;20017;-54
2022/03/29 06:43:18;;;;;;;36.28;19.15;;;17.70;37.00;;;;;;5074099;28;20028;-55
2022/03/29 06:45:44;;;;;;;32.33;18.63;;;17.90;37.60;;;;;;5073308;28;20081;-56
2022/03/29 06:48:10;;;;;;;35.22;18.55;;;18.00;36.70;;;;;;5055896;28;20036;-57
2022/03/29 06:50:35;;;;;;;31.10;18.30;;;18.10;36.70;;;;;;5072965;28;20036;-58
2022/03/29 06:53:01;;;;;;;33.92;19.15;;;18.30;36.40;;;;;;5074174;28;20029;-56
2022/03/29 06:55:28;;;;;;;32.95;19.23;;;18.50;36.30;;;;;;5053993;28;20392;-56
2022/03/29 06:57:55;;;;;;;42.58;20.60;;;18.60;36.00;;;;;;5073034;28;20052;-54
2022/03/29 07:00:21;;;;;;;31.17;19.00;;;18.80;35.90;;;;;;5074163;28;20242;-53
2022/03/29 07:02:48;;;;;;;29.50;18.73;;;19.00;35.40;;;;;;5073593;28;20028;-56
2022/03/29 07:05:14;;;;;;;31.15;17.95;;;19.10;34.20;;;;;;5073727;28;20150;-56
2022/03/29 07:07:41;;;;;;;32.58;19.10;;;19.30;34.10;;;;;;5073148;28;20024;-57
2022/03/29 07:12:59;;;;;;;34.05;17.90;;;19.70;32.90;;;;;;5074457;28;20125;-55
2022/03/29 07:15:25;;;;;;;27.13;17.17;;;19.90;32.60;;;;;;5074017;28;20174;-63
2022/03/29 07:17:51;;;;;;;33.40;18.23;;;20.10;31.60;;;;;;5074072;28;20024;-55
2022/03/29 07:20:19;;;;;;;32.22;17.05;;;20.30;31.50;;;;;;5074408;28;20047;-52
2022/03/29 07:22:52;;;;;;;30.13;18.02;;;20.40;30.90;;;;;;5073738;28;20083;-52
2022/03/29 07:25:19;;;;;;;30.80;18.37;;;21.40;30.60;;;;;;5073925;28;20495;-54
2022/03/29 07:27:46;;;;;;;28.67;16.40;;;23.10;29.40;;;;;;5073709;28;20031;-56
2022/03/29 07:30:13;;;;;;;26.85;18.35;;;24.70;28.20;;;;;;5056001;28;20033;-54
2022/03/29 07:32:43;;;;;;;25.73;17.15;;;25.90;26.60;;;;;;5072654;28;20460;-56
2022/03/29 07:35:10;;;;;;;26.63;17.65;;;27.00;25.60;;;;;;5055409;28;20030;-61
2022/03/29 07:37:35;;;;;;;24.95;17.23;;;28.10;25.00;;;;;;5072522;28;20037;-58
2022/03/29 07:40:01;;;;;;;26.30;16.50;;;29.20;24.30;;;;;;5073019;28;20358;-60
2022/03/29 07:42:27;;;;;;;28.15;17.45;;;30.00;23.90;;;;;;5072817;28;20353;-61
2022/03/29 07:44:53;;;;;;;27.70;17.33;;;30.70;23.30;;;;;;5073091;28;20103;-60
2022/03/29 07:47:19;;;;;;;29.77;18.40;;;31.70;23.00;;;;;;5055017;28;20123;-58
2022/03/29 07:49:46;;;;;;;34.10;16.15;;;32.40;22.50;;;;;;5054289;28;20064;-58
2022/03/29 07:52:14;;;;;;;34.40;16.52;;;32.40;21.90;;;;;;5072445;28;20074;-59
2022/03/29 07:54:40;;;;;;;26.70;17.67;;;32.40;22.00;;;;;;5072237;28;20078;-59
2022/03/29 07:57:08;;;;;;;25.80;16.73;;;33.00;21.80;;;;;;5072553;28;20028;-57
2022/03/29 07:59:37;;;;;;;21.58;15.27;;;33.60;21.70;;;;;;5072132;28;20137;-57
2022/03/29 08:02:04;;;;;;;26.23;16.80;;;34.20;21.50;;;;;;5054518;28;20029;-60
2022/03/29 08:04:29;;;;;;;26.38;16.30;;;34.70;21.20;;;;;;5071506;28;20031;-60
2022/03/29 08:06:55;;;;;;;25.63;16.48;;;35.30;20.80;;;;;;5054179;28;20028;-60
2022/03/29 08:09:21;;;;;;;26.00;18.40;;;35.30;20.50;;;;;;5072480;28;20028;-63
2022/03/29 08:11:46;;;;;;;26.38;16.42;;;35.50;20.50;;;;;;5071995;28;20025;-58
2022/03/29 08:14:14;;;;;;;21.13;15.73;;;36.00;20.50;;;;;;5072345;28;20024;-58
2022/03/29 08:16:40;;;;;;;26.02;16.55;;;36.30;20.20;;;;;;5071920;28;20184;-61
2022/03/29 08:19:07;;;;;;;22.42;16.40;;;36.80;20.20;;;;;;5071797;28;20051;-59
2022/03/29 08:21:52;;;;;;;20.58;15.52;;;37.20;20.00;;;;;;5071434;28;20025;-57
2022/03/29 08:24:22;;;;;;;22.58;16.83;;;37.00;19.80;;;;;;5071882;28;20028;-61
2022/03/29 08:26:51;;;;;;;27.33;16.30;;;36.60;19.70;;;;;;5071879;28;20567;-60
2022/03/29 08:29:18;;;;;;;24.42;16.38;;;36.60;19.60;;;;;;5053813;28;20024;-61
2022/03/29 08:31:45;;;;;;;28.80;15.65;;;37.00;19.70;;;;;;5053129;28;20025;-63
2022/03/29 08:34:11;;;;;;;27.52;15.75;;;37.20;19.40;;;;;;5054205;28;20033;-60
2022/03/29 08:36:38;;;;;;;23.77;15.60;;;37.30;19.30;;;;;;5036625;28;20036;-61
2022/03/29 08:39:07;;;;;;;20.55;15.32;;;36.80;19.20;;;;;;5071627;28;20078;-59
2022/03/29 08:41:44;;;;;;;27.27;15.18;;;36.40;19.30;;;;;;5053417;28;20025;-59
2022/03/29 08:44:10;;;;;;;23.40;15.45;;;35.90;19.30;;;;;;5071850;28;20045;-58
2022/03/29 08:46:38;;;;;;;21.25;14.18;;;34.20;19.70;;;;;;5071069;28;20049;-62
2022/03/29 08:49:08;;;;;;;21.98;14.18;;;32.40;20.30;;;;;;5071867;28;20135;-61
2022/03/29 08:51:37;;;;;;;25.58;14.73;;;30.90;21.00;;;;;;5071630;28;20039;-61
2022/03/29 08:54:03;;;;;;;27.88;14.38;;;29.80;21.60;;;;;;5071899;28;20040;-62
2022/03/29 08:56:29;;;;;;;28.80;14.63;;;28.90;22.40;;;;;;5071292;28;20024;-59
2022/03/29 08:58:56;;;;;;;23.27;14.63;;;28.10;22.60;;;;;;5071284;28;20474;-62
2022/03/29 09:01:23;;;;;;;21.45;15.30;;;27.40;23.20;;;;;;5071146;28;20036;-62
2022/03/29 09:04:11;;;;;;;22.60;14.48;;;26.60;23.60;;;;;;5052840;28;20078;-59
2022/03/29 09:06:50;;;;;;;26.48;14.88;;;25.90;24.20;;;;;;5058637;28;20045;-57
2022/03/29 09:09:27;;;;;;;28.95;14.77;;;25.50;24.70;;;;;;5053548;28;20027;-55
2022/03/29 09:11:56;;;;;;;23.08;13.52;;;25.20;24.90;;;;;;5053045;28;20025;-55
2022/03/29 09:14:24;;;;;;;26.15;14.30;;;25.00;25.30;;;;;;5071726;28;20020;-57
2022/03/29 09:16:51;;;;;;;27.45;14.50;;;24.80;25.50;;;;;;5070847;28;20025;-54
2022/03/29 09:19:20;;;;;;;22.40;15.30;;;24.60;25.60;;;;;;5071646;28;20025;-53
2022/03/29 09:21:46;;;;;;;27.02;14.00;;;24.60;25.80;;;;;;5071319;28;20036;-55
2022/03/29 09:24:18;;;;;;;20.25;13.60;;;24.60;26.40;;;;;;5053643;28;20024;-55
2022/03/29 09:26:46;;;;;;;18.60;12.90;;;24.40;26.00;;;;;;5071815;28;20067;-56
2022/03/29 09:29:20;;;;;;;24.38;13.38;;;24.20;26.30;;;;;;5073310;28;20345;-57
2022/03/29 09:31:59;;;;;;;29.63;13.82;;;24.10;26.40;;;;;;5057205;28;20025;-57
2022/03/29 09:34:25;;;;;;;24.67;13.57;;;24.20;26.30;;;;;;5075895;28;20024;-58
2022/03/29 09:36:52;;;;;;;21.48;12.85;;;24.30;26.30;;;;;;5075006;28;20032;-53
2022/03/29 09:39:36;;;;;;;24.85;12.70;;;24.60;26.30;;;;;;5075918;28;20051;-57
2022/03/29 09:42:11;;;;;;;21.98;13.80;;;24.70;26.00;;;;;;5075394;28;20025;-56
2022/03/29 09:44:40;;;;;;;23.95;13.07;;;24.70;26.00;;;;;;5057023;28;20032;-57
2022/03/29 09:47:08;;;;;;;28.08;13.38;;;24.70;26.00;;;;;;5075213;28;20119;-59
2022/03/29 09:49:49;;;;;;;22.23;13.00;;;24.80;26.00;;;;;;5056658;28;20043;-67
2022/03/29 09:52:17;;;;;;;26.90;12.82;;;24.70;25.60;;;;;;5075293;28;20059;-56
2022/03/29 09:55:06;;;;;;;18.05;12.60;;;24.70;25.90;;;;;;5074278;28;20036;-60
2022/03/29 09:57:44;;;;;;;21.17;12.95;;;24.50;26.00;;;;;;5074517;28;20036;-60
2022/03/29 10:00:13;;;;;;;24.85;13.07;;;24.50;26.20;;;;;;5074732;28;20078;-59
2022/03/29 10:02:44;;;;;;;19.60;12.68;;;24.60;26.10;;;;;;5074452;28;20040;-59
2022/03/29 10:05:11;;;;;;;23.08;13.35;;;24.80;26.20;;;;;;5056468;28;20029;-60
2022/03/29 10:07:50;;;;;;;19.90;12.95;;;24.90;26.00;;;;;;5074199;28;20029;-62
2022/03/29 10:10:16;;;;;;;20.65;12.93;;;24.80;25.80;;;;;;5056926;28;20016;-58
2022/03/29 10:12:42;;;;;;;20.55;13.88;;;24.60;26.00;;;;;;5055634;28;20025;-60
2022/03/29 10:15:09;;;;;;;20.52;13.45;;;24.60;26.00;;;;;;5056414;28;20025;-62
2022/03/29 10:17:36;;;;;;;20.15;12.10;;;24.40;26.00;;;;;;5056523;28;20039;-61
2022/03/29 10:20:06;;;;;;;22.83;13.55;;;24.50;26.20;;;;;;5074583;28;20040;-58
2022/03/29 10:22:33;;;;;;;25.17;13.73;;;24.60;25.90;;;;;;5074502;28;20048;-59
2022/03/29 10:24:58;;;;;;;32.88;12.80;;;24.70;25.70;;;;;;5055673;28;20029;-59
2022/03/29 10:27:25;;;;;;;23.80;13.50;;;24.80;25.60;;;;;;5056309;28;20040;-58
2022/03/29 10:29:50;;;;;;;19.85;12.20;;;24.80;25.40;;;;;;5073687;28;20099;-58
2022/03/29 10:32:31;;;;;;;20.50;13.05;;;24.70;25.40;;;;;;5055884;28;20442;-61
2022/03/29 10:35:08;;;;;;;18.45;12.68;;;24.60;25.40;;;;;;5073676;28;20448;-61
2022/03/29 10:37:55;;;;;;;18.42;12.90;;;24.70;25.30;;;;;;5055726;28;20166;-60
2022/03/29 10:40:39;;;;;;;25.23;13.40;;;24.80;25.10;;;;;;5073068;28;20115;-58
2022/03/29 10:43:28;;;;;;;25.10;12.60;;;24.80;25.10;;;;;;5073898;28;20028;-58
2022/03/29 10:45:54;;;;;;;18.13;12.70;;;24.90;24.80;;;;;;5073146;28;20032;-58
2022/03/29 10:48:19;;;;;;;21.85;13.27;;;25.10;24.90;;;;;;5055682;28;20468;-61
2022/03/29 10:50:53;;;;;;;24.42;13.43;;;25.10;24.60;;;;;;5055043;28;20492;-59
2022/03/29 10:53:33;;;;;;;30.75;13.88;;;25.00;24.60;;;;;;5073489;28;20074;-58
2022/03/29 10:56:20;;;;;;;19.98;13.63;;;24.80;24.60;;;;;;5072679;28;20028;-61
2022/03/29 10:59:04;;;;;;;20.17;12.95;;;24.60;24.80;;;;;;5054775;28;20102;-61
2022/03/29 11:01:31;;;;;;;24.60;13.35;;;24.50;24.80;;;;;;5073156;28;20057;-61
2022/03/29 11:04:07;;;;;;;22.63;13.85;;;24.30;25.00;;;;;;5072581;28;20060;-57
2022/03/29 11:06:35;;;;;;;28.92;13.68;;;24.30;24.90;;;;;;5073739;28;20032;-58
2022/03/29 11:09:15;;;;;;;20.05;12.77;;;24.30;24.80;;;;;;5037791;28;20270;-56
2022/03/29 11:11:50;;;;;;;20.85;13.68;;;24.30;24.70;;;;;;5055019;28;20108;-66
2022/03/29 11:14:36;;;;;;;22.52;12.75;;;24.40;24.70;;;;;;5039104;28;20387;-59
2022/03/29 11:17:04;;;;;;;20.85;13.32;;;24.30;24.50;;;;;;5072586;28;20064;-55
2022/03/29 11:19:47;;;;;;;25.77;14.95;;;24.30;24.60;;;;;;5055211;28;20405;-60
2022/03/29 11:22:22;;;;;;;25.38;14.50;;;24.20;24.80;;;;;;5073326;28;20031;-62
2022/03/29 11:24:58;;;;;;;20.27;14.00;;;24.20;24.60;;;;;;5054609;28;20024;-59
2022/03/29 11:27:28;;;;;;;33.78;16.30;;;24.20;25.00;;;;;;5055242;28;20032;-58
2022/03/29 11:29:55;;;;;;;28.88;13.90;;;24.20;24.90;;;;;;5054641;28;20385;-57
2022/03/29 11:32:22;;;;;;;24.00;14.02;;;24.20;24.90;;;;;;5055216;28;20025;-55
2022/03/29 11:34:53;;;;;;;24.42;14.93;;;24.20;24.90;;;;;;5072796;28;20082;-54
2022/03/29 11:37:30;;;;;;;22.70;14.80;;;24.20;24.90;;;;;;5072702;28;20082;-60
2022/03/29 11:39:57;;;;;;;20.02;13.77;;;24.20;24.90;;;;;;5071724;28;20029;-58
2022/03/29 11:42:23;;;;;;;24.60;14.70;;;24.40;24.90;;;;;;5054458;28;20029;-58
2022/03/29 11:44:50;;;;;;;22.35;14.25;;;24.50;24.70;;;;;;5071764;28;20119;-59
2022/03/29 11:47:15;;;;;;;24.40;14.63;;;24.50;24.90;;;;;;5072211;28;20043;-58
2022/03/29 11:49:43;;;;;;;21.90;13.52;;;24.60;25.00;;;;;;5072009;28;20029;-59
2022/03/29 11:52:14;;;;;;;21.00;13.32;;;24.80;24.70;;;;;;5071462;28;20039;-54
2022/03/29 11:54:58;;;;;;;26.10;15.60;;;24.80;24.50;;;;;;5054425;28;20031;-55
2022/03/29 11:57:28;;;;;;;26.67;15.18;;;24.80;24.60;;;;;;5072189;28;20473;-56
2022/03/29 11:59:55;;;;;;;30.30;15.13;;;24.70;24.70;;;;;;5053936;28;20040;-54
2022/03/29 12:02:23;;;;;;;20.98;14.82;;;24.70;24.80;;;;;;5071831;28;20040;-57
2022/03/29 12:04:49;;;;;;;19.70;13.88;;;24.80;24.70;;;;;;5053829;28;20035;-59
2022/03/29 12:07:17;;;;;;;24.27;14.35;;;24.80;24.50;;;;;;5072061;28;20155;-59
2022/03/29 12:09:48;;;;;;;24.38;13.65;;;24.60;24.70;;;;;;5071985;28;20031;-57
2022/03/29 12:12:16;;;;;;;21.83;14.02;;;24.50;24.70;;;;;;5071614;28;20500;-62
2022/03/29 12:14:42;;;;;;;24.42;14.35;;;24.60;24.90;;;;;;5053427;28;20025;-57
2022/03/29 12:17:08;;;;;;;23.98;14.35;;;24.60;24.80;;;;;;5071131;28;20480;-57
2022/03/29 12:19:39;;;;;;;26.05;14.07;;;24.50;24.80;;;;;;5053480;28;20082;-58
2022/03/29 12:22:07;;;;;;;22.98;13.63;;;24.40;24.80;;;;;;5071180;28;20078;-58
2022/03/29 12:24:38;;;;;;;25.85;13.52;;;24.50;24.60;;;;;;5053518;28;20553;-56
2022/03/29 12:27:06;;;;;;;17.75;12.88;;;24.50;24.50;;;;;;5070877;28;20427;-57
2022/03/29 12:29:38;;;;;;;23.15;12.85;;;24.60;24.50;;;;;;5053513;28;20024;-57
2022/03/29 12:32:05;;;;;;;21.35;12.82;;;24.60;24.60;;;;;;5070861;28;20029;-60
2022/03/29 12:34:34;;;;;;;23.55;12.30;;;24.60;24.40;;;;;;5071496;28;20028;-57
2022/03/29 12:37:03;;;;;;;21.67;13.05;;;24.60;24.40;;;;;;5071257;28;20035;-56
2022/03/29 12:39:37;;;;;;;22.92;13.38;;;24.70;24.30;;;;;;5053914;28;20074;-57
2022/03/29 12:42:04;;;;;;;18.50;13.23;;;24.70;24.20;;;;;;5053366;28;20028;-55